Time;durP1;ratioP1;P1;durP2;ratioP2;P2;SDS_P1;SDS_P2;PMS_P1;PMS_P2;Temp;Humidity;BMP_temperature;BMP_pressure;BME280_temperature;BME280_humidity;BME280_pressure;Samples;Min_cycle;Max_cycle;Signal;HPM_P1;HPM_P2
2023/04/10 00:00:31;;;;;;;12.57;11.27;;;16.90;55.10;;;;;;5072675;28;20185;-63
2023/04/10 00:03:00;;;;;;;13.00;11.68;;;16.90;55.00;;;;;;5072453;28;20227;-63
2023/04/10 00:05:26;;;;;;;12.55;11.30;;;16.90;55.00;;;;;;5072546;28;20535;-62
2023/04/10 00:07:52;;;;;;;14.02;12.13;;;16.90;55.00;;;;;;5072790;28;20637;-66
2023/04/10 00:10:18;;;;;;;12.68;11.38;;;16.90;54.90;;;;;;5070845;28;20277;-61
2023/04/10 00:12:44;;;;;;;13.43;12.02;;;16.90;55.00;;;;;;5072451;28;20227;-62
2023/04/10 00:15:09;;;;;;;12.65;11.45;;;16.90;55.00;;;;;;5072229;28;20513;-62
2023/04/10 00:17:35;;;;;;;13.23;11.82;;;16.90;55.00;;;;;;5071667;28;20181;-63
2023/04/10 00:20:01;;;;;;;12.88;11.57;;;16.90;54.90;;;;;;5072164;28;20310;-62
2023/04/10 00:22:26;;;;;;;14.35;12.93;;;16.90;54.90;;;;;;5072052;28;20301;-62
2023/04/10 00:24:52;;;;;;;13.63;12.23;;;16.80;54.80;;;;;;5071609;28;20546;-61
2023/04/10 00:27:17;;;;;;;12.30;11.13;;;16.80;54.90;;;;;;5072104;28;20178;-62
2023/04/10 00:29:43;;;;;;;12.05;10.88;;;16.80;54.80;;;;;;5072257;28;20178;-62
2023/04/10 00:32:08;;;;;;;13.48;12.20;;;16.80;54.90;;;;;;5071273;28;20535;-62
2023/04/10 00:34:34;;;;;;;13.68;12.30;;;16.80;54.80;;;;;;5072521;28;20247;-63
2023/04/10 00:37:00;;;;;;;12.20;10.90;;;16.80;54.80;;;;;;5072156;28;20178;-63
2023/04/10 00:39:26;;;;;;;13.43;12.05;;;16.80;54.80;;;;;;5071044;28;20566;-63
2023/04/10 00:41:51;;;;;;;12.82;11.52;;;16.80;54.90;;;;;;5071640;28;20203;-63
2023/04/10 00:44:17;;;;;;;14.07;12.60;;;16.80;54.70;;;;;;5071214;28;20183;-63
2023/04/10 00:46:42;;;;;;;12.90;11.60;;;16.80;54.80;;;;;;5072325;28;20311;-63
2023/04/10 00:49:08;;;;;;;13.15;11.85;;;16.80;54.70;;;;;;5070836;28;20228;-61
2023/04/10 00:51:34;;;;;;;13.52;12.13;;;16.80;54.70;;;;;;5069589;28;20474;-61
2023/04/10 00:54:00;;;;;;;12.50;11.30;;;16.80;54.70;;;;;;5071418;28;20539;-61
2023/04/10 00:56:25;;;;;;;12.50;11.30;;;16.80;54.70;;;;;;5072031;28;20249;-61
2023/04/10 00:58:51;;;;;;;13.55;11.63;;;16.80;54.70;;;;;;5070305;28;20677;-62
2023/04/10 01:01:16;;;;;;;13.00;11.70;;;16.70;54.70;;;;;;5072087;28;20694;-63
2023/04/10 01:03:42;;;;;;;12.38;11.18;;;16.80;54.70;;;;;;5072347;28;20630;-63
2023/04/10 01:06:30;;;;;;;12.63;10.80;;;16.70;54.60;;;;;;5069804;28;20186;-62
2023/04/10 01:09:09;;;;;;;12.05;10.85;;;16.70;54.60;;;;;;5070017;28;20656;-62
2023/04/10 01:11:47;;;;;;;13.07;11.70;;;16.70;54.70;;;;;;5074835;28;20253;-61
2023/04/10 01:14:46;;;;;;;11.77;10.63;;;16.70;54.60;;;;;;5075044;28;20158;-62
2023/04/10 01:17:50;;;;;;;11.90;10.73;;;16.70;54.60;;;;;;5075860;28;20170;-62
2023/04/10 01:20:19;;;;;;;12.25;11.05;;;16.70;54.60;;;;;;5066553;28;20692;-63
2023/04/10 01:22:54;;;;;;;12.80;11.60;;;16.70;54.60;;;;;;5075750;28;20225;-62
2023/04/10 01:25:38;;;;;;;11.90;10.65;;;16.70;54.60;;;;;;5074063;28;20224;-61
2023/04/10 01:28:06;;;;;;;12.40;11.18;;;16.70;54.60;;;;;;5090617;28;20201;-61
2023/04/10 01:30:32;;;;;;;12.50;11.30;;;16.70;54.50;;;;;;5074131;28;20181;-62
2023/04/10 01:32:58;;;;;;;12.45;11.25;;;16.70;54.60;;;;;;5074197;28;20182;-63
2023/04/10 01:35:24;;;;;;;11.60;10.50;;;16.70;54.50;;;;;;5073258;28;20621;-63
2023/04/10 01:37:49;;;;;;;11.23;10.13;;;16.70;54.50;;;;;;5075719;28;20181;-63
2023/04/10 01:40:16;;;;;;;12.25;11.10;;;16.70;54.50;;;;;;5073612;28;20637;-63
2023/04/10 01:42:50;;;;;;;12.10;10.85;;;16.70;54.50;;;;;;5072680;28;20297;-64
2023/04/10 01:45:20;;;;;;;11.75;10.57;;;16.70;54.50;;;;;;5073435;28;20678;-62
2023/04/10 01:47:46;;;;;;;10.82;9.73;;;16.70;54.50;;;;;;5073514;28;20201;-63
2023/04/10 01:50:12;;;;;;;11.57;10.48;;;16.70;54.50;;;;;;5074966;28;20532;-61
2023/04/10 01:52:38;;;;;;;12.05;10.85;;;16.60;54.40;;;;;;5073966;28;20178;-62
2023/04/10 01:55:05;;;;;;;12.18;10.88;;;16.60;54.50;;;;;;5073174;28;20680;-62
2023/04/10 01:57:30;;;;;;;11.90;10.75;;;16.60;54.50;;;;;;5074048;28;20265;-62
2023/04/10 01:59:56;;;;;;;11.07;10.07;;;16.60;54.50;;;;;;5073958;28;20226;-63
2023/04/10 02:02:22;;;;;;;11.55;10.40;;;16.60;54.50;;;;;;5074089;28;20221;-63
2023/04/10 02:04:50;;;;;;;10.93;9.82;;;16.60;54.50;;;;;;5074579;28;20171;-63
2023/04/10 02:07:26;;;;;;;11.75;10.55;;;16.60;54.40;;;;;;5074899;28;20240;-62
2023/04/10 02:10:01;;;;;;;11.32;10.20;;;16.60;54.50;;;;;;5073120;28;20163;-61
2023/04/10 02:12:35;;;;;;;11.82;10.57;;;16.60;54.50;;;;;;5074846;28;20177;-62
2023/04/10 02:15:01;;;;;;;11.63;10.43;;;16.60;54.50;;;;;;5073745;28;20194;-62
2023/04/10 02:17:28;;;;;;;11.00;9.90;;;16.60;54.50;;;;;;5072841;28;20175;-62
2023/04/10 02:19:54;;;;;;;10.43;9.43;;;16.60;54.50;;;;;;5073782;28;20233;-62
2023/04/10 02:22:20;;;;;;;10.60;9.55;;;16.60;54.50;;;;;;5071415;28;20209;-61
2023/04/10 02:24:46;;;;;;;11.10;10.00;;;16.60;54.50;;;;;;5071542;28;20261;-62
2023/04/10 02:27:12;;;;;;;11.65;10.52;;;16.60;54.40;;;;;;5072496;28;20266;-61
2023/04/10 02:29:37;;;;;;;11.32;10.32;;;16.60;54.50;;;;;;5074780;28;20184;-62
2023/04/10 02:32:03;;;;;;;10.30;9.40;;;16.60;54.50;;;;;;5073748;28;20181;-62
2023/04/10 02:34:29;;;;;;;11.07;9.88;;;16.60;54.50;;;;;;5074350;28;20257;-63
2023/04/10 02:36:55;;;;;;;10.32;9.32;;;16.60;54.50;;;;;;5073924;28;20651;-64
2023/04/10 02:39:20;;;;;;;10.45;9.40;;;16.50;54.40;;;;;;5074190;28;20182;-63
2023/04/10 02:41:46;;;;;;;11.27;10.18;;;16.60;54.50;;;;;;5074034;28;20198;-63
2023/04/10 02:44:12;;;;;;;10.32;9.32;;;16.50;54.40;;;;;;5072858;28;20805;-63
2023/04/10 02:46:38;;;;;;;10.60;9.60;;;16.50;54.40;;;;;;5074125;28;20247;-63
2023/04/10 02:49:03;;;;;;;10.57;9.57;;;16.50;54.40;;;;;;5073788;28;20630;-62
2023/04/10 02:51:29;;;;;;;10.27;9.35;;;16.50;54.40;;;;;;5073091;28;20171;-61
2023/04/10 02:53:55;;;;;;;9.82;8.90;;;16.50;54.40;;;;;;5073787;28;20186;-61
2023/04/10 02:56:20;;;;;;;10.65;9.65;;;16.50;54.50;;;;;;5073587;28;20316;-62
2023/04/10 02:58:46;;;;;;;9.98;8.98;;;16.50;54.40;;;;;;5073247;28;20227;-63
2023/04/10 03:01:12;;;;;;;10.75;9.65;;;16.50;54.50;;;;;;5073495;28;20190;-63
2023/04/10 03:03:38;;;;;;;10.88;9.77;;;16.50;54.60;;;;;;5073923;28;20259;-62
2023/04/10 03:06:03;;;;;;;10.93;9.75;;;16.50;54.50;;;;;;5073327;28;20175;-62
2023/04/10 03:08:29;;;;;;;10.90;9.05;;;16.50;54.40;;;;;;5073428;28;20592;-61
2023/04/10 03:10:55;;;;;;;10.23;9.32;;;16.50;54.40;;;;;;5073685;28;20185;-61
2023/04/10 03:13:22;;;;;;;9.50;8.60;;;16.50;54.50;;;;;;5072426;28;20179;-62
2023/04/10 03:15:47;;;;;;;10.40;9.40;;;16.50;54.50;;;;;;5073678;28;20205;-62
2023/04/10 03:18:13;;;;;;;10.55;9.55;;;16.50;54.50;;;;;;5072577;28;20559;-62
2023/04/10 03:20:38;;;;;;;8.88;8.02;;;16.40;54.40;;;;;;5072332;28;20309;-62
2023/04/10 03:23:07;;;;;;;10.15;9.15;;;16.50;54.50;;;;;;5073307;28;20274;-62
2023/04/10 03:25:35;;;;;;;10.07;9.10;;;16.50;54.40;;;;;;5073424;28;20598;-62
2023/04/10 03:28:01;;;;;;;10.15;9.15;;;16.40;54.40;;;;;;5072792;28;20186;-62
2023/04/10 03:30:27;;;;;;;9.30;8.40;;;16.40;54.40;;;;;;5072862;28;20171;-62
2023/04/10 03:32:52;;;;;;;9.25;8.43;;;16.40;55.00;;;;;;5073076;28;20185;-63
2023/04/10 03:35:18;;;;;;;9.40;8.60;;;16.40;54.40;;;;;;5072423;28;20181;-63
2023/04/10 03:37:43;;;;;;;10.45;9.45;;;16.50;54.40;;;;;;5073176;28;20213;-63
2023/04/10 03:40:09;;;;;;;9.40;8.52;;;16.40;54.40;;;;;;5072102;28;20621;-63
2023/04/10 03:42:35;;;;;;;8.95;8.15;;;16.40;54.40;;;;;;5073069;28;20267;-64
2023/04/10 03:45:03;;;;;;;10.15;9.15;;;16.40;54.40;;;;;;5072966;28;20174;-63
2023/04/10 03:47:30;;;;;;;10.10;9.10;;;16.40;54.40;;;;;;5072189;28;20265;-62
2023/04/10 03:49:55;;;;;;;8.90;8.10;;;16.40;54.50;;;;;;5073077;28;20253;-61
2023/04/10 03:52:21;;;;;;;9.45;8.55;;;16.40;54.40;;;;;;5072595;28;20273;-61
2023/04/10 03:54:46;;;;;;;9.43;8.55;;;16.40;54.50;;;;;;5072177;28;20339;-61
2023/04/10 03:57:12;;;;;;;9.70;8.80;;;16.40;54.40;;;;;;5072561;28;20167;-62
2023/04/10 03:59:37;;;;;;;9.07;8.27;;;16.30;54.40;;;;;;5072035;28;20265;-63
2023/04/10 04:02:03;;;;;;;9.57;8.68;;;16.40;54.40;;;;;;5072287;28;20206;-63
2023/04/10 04:04:30;;;;;;;8.90;8.10;;;16.30;54.40;;;;;;5071275;28;20170;-63
2023/04/10 04:06:55;;;;;;;9.18;8.27;;;16.30;54.40;;;;;;5072326;28;20523;-62
2023/04/10 04:09:21;;;;;;;8.95;8.07;;;16.40;54.40;;;;;;5071603;28;20197;-62
2023/04/10 04:11:46;;;;;;;7.97;7.28;;;16.30;54.40;;;;;;5072637;28;20632;-61
2023/04/10 04:14:12;;;;;;;9.05;8.27;;;16.30;55.00;;;;;;5072207;28;20175;-62
2023/04/10 04:16:37;;;;;;;9.00;8.20;;;16.30;54.40;;;;;;5071895;28;20276;-63
2023/04/10 04:19:03;;;;;;;9.27;8.38;;;16.30;54.40;;;;;;5072574;28;20167;-61
2023/04/10 04:21:28;;;;;;;8.93;8.02;;;16.30;55.00;;;;;;5072084;28;20207;-62
2023/04/10 04:23:54;;;;;;;8.70;7.90;;;16.30;54.40;;;;;;5072005;28;20181;-61
2023/04/10 04:26:20;;;;;;;8.57;7.70;;;16.30;54.40;;;;;;5072285;28;20258;-61
2023/04/10 04:28:46;;;;;;;8.98;8.07;;;16.30;54.40;;;;;;5072006;28;20182;-62
2023/04/10 04:31:11;;;;;;;8.55;7.78;;;16.30;54.40;;;;;;5070900;28;20216;-63
2023/04/10 04:33:37;;;;;;;8.52;7.78;;;16.30;54.40;;;;;;5072587;28;20250;-63
2023/04/10 04:36:02;;;;;;;8.27;7.47;;;16.30;54.40;;;;;;5071780;28;20174;-63
2023/04/10 04:38:28;;;;;;;8.57;7.78;;;16.30;54.40;;;;;;5071330;28;20190;-63
2023/04/10 04:40:53;;;;;;;8.23;7.53;;;16.30;54.60;;;;;;5072272;28;20648;-63
2023/04/10 04:43:19;;;;;;;8.57;7.72;;;16.30;54.50;;;;;;5071446;28;20182;-63
2023/04/10 04:45:45;;;;;;;8.00;7.30;;;16.20;54.40;;;;;;5071347;28;20166;-63
2023/04/10 04:48:10;;;;;;;8.68;7.85;;;16.20;54.50;;;;;;5072153;28;20182;-62
2023/04/10 04:50:36;;;;;;;8.80;8.00;;;16.30;54.60;;;;;;5071393;28;20167;-62
2023/04/10 04:53:01;;;;;;;8.25;7.35;;;16.20;54.40;;;;;;5070515;28;20174;-61
2023/04/10 04:55:27;;;;;;;7.88;7.18;;;16.20;54.40;;;;;;5071926;28;20166;-62
2023/04/10 04:57:52;;;;;;;8.20;7.40;;;16.20;54.50;;;;;;5071397;28;20217;-62
2023/04/10 05:00:18;;;;;;;8.60;7.80;;;16.20;54.40;;;;;;5072048;28;20224;-62
2023/04/10 05:02:43;;;;;;;8.70;7.90;;;16.20;54.40;;;;;;5072205;28;20297;-63
2023/04/10 05:05:09;;;;;;;8.20;7.50;;;16.20;54.50;;;;;;5071115;28;20170;-62
2023/04/10 05:07:34;;;;;;;7.15;6.50;;;16.20;54.50;;;;;;5071275;28;20484;-62
2023/04/10 05:10:00;;;;;;;7.57;6.88;;;16.20;54.60;;;;;;5071365;28;20637;-61
2023/04/10 05:12:25;;;;;;;7.80;7.10;;;16.20;54.60;;;;;;5070411;28;20626;-62
2023/04/10 05:14:51;;;;;;;7.97;7.20;;;16.20;54.60;;;;;;5071926;28;20197;-62
2023/04/10 05:17:16;;;;;;;8.55;7.68;;;16.20;54.60;;;;;;5071650;28;20712;-62
2023/04/10 05:19:42;;;;;;;7.97;7.28;;;16.20;54.60;;;;;;5070565;28;20218;-62
2023/04/10 05:22:07;;;;;;;7.53;6.82;;;16.20;54.60;;;;;;5071568;28;20214;-62
2023/04/10 05:24:33;;;;;;;7.15;6.55;;;16.20;54.60;;;;;;5071671;28;20552;-61
2023/04/10 05:26:59;;;;;;;8.35;7.53;;;16.10;54.60;;;;;;5071142;28;20628;-62
2023/04/10 05:29:25;;;;;;;7.72;7.03;;;16.20;54.70;;;;;;5071553;28;20181;-62
2023/04/10 05:31:51;;;;;;;7.93;7.25;;;16.20;54.80;;;;;;5071807;28;20275;-63
2023/04/10 05:34:16;;;;;;;7.50;6.50;;;16.20;54.70;;;;;;5071028;28;20178;-64
2023/04/10 05:36:42;;;;;;;7.50;6.80;;;16.20;54.80;;;;;;5071869;28;20178;-63
2023/04/10 05:39:07;;;;;;;6.90;6.30;;;16.10;54.70;;;;;;5070288;28;20185;-64
2023/04/10 05:41:33;;;;;;;7.40;6.80;;;16.10;54.70;;;;;;5071048;28;20678;-64
2023/04/10 05:43:58;;;;;;;7.63;7.03;;;16.20;54.80;;;;;;5071596;28;20645;-64
2023/04/10 05:46:24;;;;;;;8.05;7.30;;;16.10;54.80;;;;;;5071521;28;20657;-63
2023/04/10 05:48:50;;;;;;;6.95;6.22;;;16.10;54.80;;;;;;5070917;28;20641;-62
2023/04/10 05:51:15;;;;;;;7.40;6.70;;;16.20;54.80;;;;;;5071531;28;20179;-62
2023/04/10 05:53:41;;;;;;;7.68;6.97;;;16.10;54.80;;;;;;5070857;28;20213;-61
2023/04/10 05:56:07;;;;;;;7.72;7.03;;;16.10;55.00;;;;;;5070997;28;20182;-62
2023/04/10 05:58:32;;;;;;;7.18;6.57;;;16.10;55.10;;;;;;5075322;28;20208;-62
2023/04/10 06:00:58;;;;;;;7.20;6.50;;;16.20;55.00;;;;;;5074559;28;20175;-63
2023/04/10 06:03:26;;;;;;;8.15;7.35;;;16.20;54.80;;;;;;5074957;28;20175;-64
2023/04/10 06:05:51;;;;;;;7.30;6.70;;;16.20;54.50;;;;;;5075118;28;20174;-62
2023/04/10 06:08:18;;;;;;;6.47;5.88;;;16.30;54.50;;;;;;5055980;28;20182;-62
2023/04/10 06:10:45;;;;;;;7.75;7.15;;;16.40;54.50;;;;;;5075110;28;20329;-62
2023/04/10 06:13:10;;;;;;;7.25;6.60;;;16.50;54.40;;;;;;5074553;28;20182;-63
2023/04/10 06:15:36;;;;;;;7.07;6.40;;;16.60;54.30;;;;;;5074232;28;20251;-62
2023/04/10 06:18:01;;;;;;;6.53;5.93;;;16.70;54.20;;;;;;5074742;28;20655;-62
2023/04/10 06:20:27;;;;;;;6.65;6.05;;;16.80;54.10;;;;;;5074279;28;20287;-62
2023/04/10 06:22:53;;;;;;;6.18;5.57;;;16.90;53.90;;;;;;5072920;28;20626;-61
2023/04/10 06:25:18;;;;;;;7.15;6.47;;;17.00;53.90;;;;;;5073584;28;20483;-61
2023/04/10 06:27:44;;;;;;;6.03;5.47;;;17.10;53.80;;;;;;5073986;28;20178;-62
2023/04/10 06:30:10;;;;;;;5.93;5.38;;;17.20;53.80;;;;;;5073601;28;20213;-62
2023/04/10 06:32:35;;;;;;;6.30;5.70;;;17.20;53.60;;;;;;5074319;28;20228;-63
2023/04/10 06:35:01;;;;;;;6.45;5.85;;;17.30;53.70;;;;;;5074386;28;20261;-62
2023/04/10 06:37:31;;;;;;;6.72;6.03;;;17.30;53.60;;;;;;5072896;28;20178;-63
2023/04/10 06:40:04;;;;;;;6.53;5.75;;;17.40;53.50;;;;;;5074360;28;20179;-63
2023/04/10 06:42:30;;;;;;;6.38;5.30;;;17.50;53.60;;;;;;5074599;28;20218;-64
2023/04/10 06:44:56;;;;;;;6.07;5.47;;;17.50;53.60;;;;;;5073820;28;20578;-64
2023/04/10 06:47:21;;;;;;;5.82;5.35;;;17.50;53.50;;;;;;5074199;28;20703;-63
2023/04/10 06:49:47;;;;;;;6.75;6.07;;;17.50;53.60;;;;;;5073053;28;20174;-62
2023/04/10 06:52:12;;;;;;;5.57;5.18;;;17.50;53.60;;;;;;5072908;28;20201;-62
2023/04/10 06:54:38;;;;;;;5.97;5.47;;;17.50;53.80;;;;;;5074005;28;20652;-61
2023/04/10 06:57:03;;;;;;;6.50;5.90;;;17.40;53.70;;;;;;5073468;28;20170;-63
2023/04/10 06:59:30;;;;;;;6.18;5.57;;;17.30;53.80;;;;;;5073567;28;20193;-63
2023/04/10 07:01:56;;;;;;;6.03;5.53;;;17.30;54.00;;;;;;5073593;28;20525;-63
2023/04/10 07:04:21;;;;;;;5.90;5.40;;;17.30;54.10;;;;;;5072828;28;20257;-64
2023/04/10 07:06:47;;;;;;;5.30;4.80;;;17.20;54.10;;;;;;5073264;28;20266;-62
2023/04/10 07:09:13;;;;;;;7.65;5.10;;;17.20;54.20;;;;;;5072964;28;20198;-62
2023/04/10 07:11:38;;;;;;;6.20;5.60;;;17.20;54.30;;;;;;5072945;28;20218;-61
2023/04/10 07:14:04;;;;;;;6.28;5.72;;;17.20;54.40;;;;;;5073859;28;20253;-62
2023/04/10 07:16:29;;;;;;;5.60;5.20;;;17.10;54.50;;;;;;5073690;28;20268;-62
2023/04/10 07:18:55;;;;;;;5.70;5.10;;;17.10;54.60;;;;;;5073009;28;20170;-62
2023/04/10 07:21:20;;;;;;;6.93;6.22;;;17.00;54.50;;;;;;5072996;28;20198;-62
2023/04/10 07:23:46;;;;;;;5.70;5.20;;;17.00;54.50;;;;;;5073453;28;20191;-61
2023/04/10 07:26:12;;;;;;;5.68;5.18;;;17.00;54.60;;;;;;5072722;28;20708;-61
2023/04/10 07:28:37;;;;;;;5.45;5.00;;;17.00;54.60;;;;;;5073490;28;20288;-61
2023/04/10 07:31:03;;;;;;;5.72;5.13;;;16.90;54.60;;;;;;5072530;28;20508;-62
2023/04/10 07:33:29;;;;;;;6.32;5.82;;;16.90;54.70;;;;;;5071730;28;20629;-64
2023/04/10 07:35:54;;;;;;;5.68;5.22;;;16.90;54.80;;;;;;5072865;28;20187;-63
2023/04/10 07:38:20;;;;;;;5.97;5.38;;;16.90;54.80;;;;;;5072915;28;20543;-63
2023/04/10 07:40:45;;;;;;;5.75;5.25;;;16.90;54.80;;;;;;5072251;28;20172;-63
2023/04/10 07:43:11;;;;;;;5.93;5.43;;;16.80;54.80;;;;;;5072747;28;20177;-63
2023/04/10 07:45:36;;;;;;;5.95;5.25;;;16.80;54.80;;;;;;5073106;28;20270;-63
2023/04/10 07:48:02;;;;;;;5.97;5.47;;;16.80;54.80;;;;;;5072210;28;20269;-62
2023/04/10 07:50:29;;;;;;;6.60;5.80;;;16.80;54.90;;;;;;5072601;28;20225;-61
2023/04/10 07:52:55;;;;;;;5.85;5.35;;;16.80;54.90;;;;;;5072846;28;20648;-61
2023/04/10 07:55:20;;;;;;;6.10;5.60;;;16.80;54.90;;;;;;5071924;28;20186;-61
2023/04/10 07:57:46;;;;;;;6.47;5.43;;;16.70;54.90;;;;;;5073062;28;20167;-62
2023/04/10 08:00:12;;;;;;;5.80;5.30;;;16.70;54.90;;;;;;5072543;28;20206;-62
2023/04/10 08:02:39;;;;;;;5.82;5.32;;;16.70;54.90;;;;;;5071011;28;20202;-63
2023/04/10 08:05:05;;;;;;;6.25;5.63;;;16.70;54.90;;;;;;5072287;28;20178;-63
2023/04/10 08:07:31;;;;;;;5.50;5.07;;;16.70;54.90;;;;;;5071877;28;20181;-62
2023/04/10 08:09:56;;;;;;;5.72;5.22;;;16.70;54.90;;;;;;5072445;28;20178;-62
2023/04/10 08:12:22;;;;;;;5.75;5.25;;;16.70;54.90;;;;;;5072448;28;20182;-61
2023/04/10 08:14:48;;;;;;;6.05;5.45;;;16.70;54.90;;;;;;5071398;28;20783;-62
2023/04/10 08:17:14;;;;;;;5.97;5.47;;;16.70;55.00;;;;;;5072209;28;20681;-63
2023/04/10 08:19:41;;;;;;;6.00;5.40;;;16.70;54.90;;;;;;5071459;28;20352;-62
2023/04/10 08:22:06;;;;;;;6.13;5.63;;;16.70;54.90;;;;;;5071395;28;20206;-62
2023/04/10 08:24:32;;;;;;;5.80;5.25;;;16.80;54.90;;;;;;5072672;28;20598;-61
2023/04/10 08:26:57;;;;;;;5.38;4.97;;;16.80;54.80;;;;;;5072682;28;20178;-63
2023/04/10 08:29:23;;;;;;;5.80;5.30;;;16.80;54.80;;;;;;5071253;28;20167;-62
2023/04/10 08:31:48;;;;;;;5.45;4.95;;;16.80;54.70;;;;;;5072401;28;20170;-62
2023/04/10 08:34:14;;;;;;;5.10;4.70;;;16.90;54.80;;;;;;5071817;28;20594;-63
2023/04/10 08:36:39;;;;;;;5.88;5.28;;;16.90;54.70;;;;;;5071641;28;20171;-64
2023/04/10 08:39:05;;;;;;;5.93;5.32;;;16.90;54.80;;;;;;5071934;28;20259;-64
2023/04/10 08:41:30;;;;;;;5.75;5.10;;;16.90;54.60;;;;;;5072404;28;20297;-63
2023/04/10 08:43:56;;;;;;;5.80;5.32;;;16.90;54.60;;;;;;5071719;28;20190;-63
2023/04/10 08:46:23;;;;;;;4.80;4.40;;;16.90;54.60;;;;;;5072098;28;20542;-63
2023/04/10 08:48:54;;;;;;;5.60;5.10;;;16.90;54.60;;;;;;5072071;28;20637;-61
2023/04/10 08:51:20;;;;;;;5.40;4.90;;;16.90;54.70;;;;;;5070938;28;20204;-62
2023/04/10 08:53:49;;;;;;;5.43;4.95;;;16.90;54.70;;;;;;5071146;28;20579;-61
2023/04/10 08:56:15;;;;;;;6.07;5.47;;;16.90;54.70;;;;;;5070884;28;20178;-62
2023/04/10 08:58:41;;;;;;;5.32;4.85;;;16.90;54.80;;;;;;5070223;28;20666;-62
2023/04/10 09:01:06;;;;;;;5.72;5.22;;;16.90;54.70;;;;;;5070738;28;20558;-63
2023/04/10 09:03:32;;;;;;;5.50;5.05;;;16.90;54.80;;;;;;5070813;28;20633;-63
2023/04/10 09:06:01;;;;;;;5.28;4.85;;;16.90;54.90;;;;;;5071005;28;20170;-62
2023/04/10 09:08:28;;;;;;;5.97;5.47;;;16.90;54.90;;;;;;5071940;28;20589;-62
2023/04/10 09:10:53;;;;;;;6.05;5.55;;;16.90;54.80;;;;;;5071464;28;20236;-61
2023/04/10 09:13:35;;;;;;;6.07;5.47;;;16.90;54.80;;;;;;5071795;28;20182;-61
2023/04/10 09:16:00;;;;;;;4.93;4.53;;;16.90;54.80;;;;;;5071641;28;20170;-62
2023/04/10 09:18:46;;;;;;;5.65;5.00;;;16.90;54.90;;;;;;5070227;28;20174;-62
2023/04/10 09:21:13;;;;;;;5.80;5.18;;;16.90;54.90;;;;;;5071383;28;20218;-62
2023/04/10 09:23:40;;;;;;;5.75;5.25;;;16.90;54.90;;;;;;5071999;28;20231;-62
2023/04/10 09:26:32;;;;;;;5.53;5.05;;;16.90;55.00;;;;;;5070892;28;20166;-61
2023/04/10 09:29:09;;;;;;;5.30;4.80;;;16.90;55.00;;;;;;5071920;28;20183;-61
2023/04/10 09:31:35;;;;;;;5.22;4.82;;;16.80;55.00;;;;;;5074384;28;20182;-63
2023/04/10 09:34:10;;;;;;;5.22;4.60;;;16.80;55.00;;;;;;5074835;28;20171;-63
2023/04/10 09:36:36;;;;;;;5.53;5.03;;;16.80;55.00;;;;;;5075658;28;20224;-62
2023/04/10 09:39:03;;;;;;;5.22;4.72;;;16.80;55.10;;;;;;5074848;28;20278;-63
2023/04/10 09:41:28;;;;;;;5.80;5.30;;;16.80;55.10;;;;;;5075201;28;20214;-63
2023/04/10 09:44:06;;;;;;;5.38;4.90;;;16.90;55.10;;;;;;5075283;28;20170;-64
2023/04/10 09:46:31;;;;;;;5.40;4.90;;;16.80;55.10;;;;;;5074585;28;20189;-64
2023/04/10 09:48:58;;;;;;;5.82;5.05;;;16.80;55.20;;;;;;5075216;28;20178;-63
2023/04/10 09:51:30;;;;;;;5.00;4.60;;;16.80;55.30;;;;;;5075048;28;20178;-62
2023/04/10 09:53:56;;;;;;;5.63;5.13;;;16.80;55.40;;;;;;5074443;28;20174;-69
2023/04/10 09:56:21;;;;;;;5.43;4.80;;;16.80;55.50;;;;;;5074740;28;20649;-62
2023/04/10 09:58:48;;;;;;;5.80;5.20;;;16.80;55.40;;;;;;5075239;28;20629;-71
2023/04/10 10:01:13;;;;;;;6.03;5.45;;;16.90;55.70;;;;;;5072917;28;20209;-71
2023/04/10 10:03:39;;;;;;;6.57;5.30;;;17.00;55.00;;;;;;5073570;28;20190;-71
2023/04/10 10:06:05;;;;;;;11.68;6.05;;;17.00;55.30;;;;;;5074641;28;20178;-71
2023/04/10 10:08:30;;;;;;;6.20;5.43;;;17.00;56.30;;;;;;5072795;28;20643;-69
2023/04/10 10:10:56;;;;;;;11.05;6.32;;;17.00;55.50;;;;;;5073870;28;20642;-71
2023/04/10 10:13:37;;;;;;;6.07;5.43;;;17.10;56.80;;;;;;5073154;28;20539;-70
2023/04/10 10:16:06;;;;;;;6.40;5.40;;;17.10;56.70;;;;;;5072829;28;20181;-71
2023/04/10 10:18:46;;;;;;;6.22;5.60;;;17.20;56.60;;;;;;5074254;28;20687;-74
2023/04/10 10:21:15;;;;;;;6.57;5.93;;;17.20;56.70;;;;;;5071855;28;20279;-74
2023/04/10 10:23:41;;;;;;;7.00;5.22;;;17.30;56.80;;;;;;5073473;28;20178;-75
2023/04/10 10:26:07;;;;;;;6.18;5.47;;;17.30;56.80;;;;;;5073060;28;20179;-76
2023/04/10 10:28:36;;;;;;;5.65;5.15;;;17.40;56.90;;;;;;5072019;28;20175;-73
2023/04/10 10:31:02;;;;;;;5.90;5.10;;;17.40;56.70;;;;;;5074465;28;20181;-71
2023/04/10 10:33:28;;;;;;;6.75;5.55;;;17.40;56.70;;;;;;5074014;28;20557;-72
2023/04/10 10:35:53;;;;;;;6.30;5.55;;;17.40;56.70;;;;;;5072568;28;20254;-71
2023/04/10 10:38:19;;;;;;;6.97;4.90;;;17.40;56.70;;;;;;5072657;28;20254;-75
2023/04/10 10:40:58;;;;;;;8.48;5.70;;;17.50;56.70;;;;;;5073257;28;20250;-72
2023/04/10 10:43:50;;;;;;;5.88;5.28;;;17.50;56.60;;;;;;5070970;28;20185;-72
2023/04/10 10:46:20;;;;;;;9.35;6.05;;;17.50;56.70;;;;;;5073050;28;20174;-74
2023/04/10 10:48:57;;;;;;;11.27;6.70;;;17.50;56.00;;;;;;5072784;28;20171;-72
2023/04/10 10:51:23;;;;;;;7.10;6.30;;;17.40;54.00;;;;;;5073193;28;20178;-73
2023/04/10 10:53:49;;;;;;;8.98;7.00;;;17.30;54.80;;;;;;5073808;28;20181;-75
2023/04/10 10:56:17;;;;;;;8.63;6.68;;;17.20;52.90;;;;;;5072839;28;20209;-74
2023/04/10 10:58:46;;;;;;;8.13;6.00;;;17.10;52.50;;;;;;5073120;28;20171;-74
2023/04/10 11:01:12;;;;;;;8.13;6.75;;;17.10;51.80;;;;;;5073565;28;20201;-69
2023/04/10 11:03:38;;;;;;;8.32;6.57;;;17.10;51.60;;;;;;5073029;28;20517;-72
2023/04/10 11:06:06;;;;;;;9.93;7.03;;;17.10;50.70;;;;;;5073393;28;20262;-70
2023/04/10 11:08:34;;;;;;;8.88;6.03;;;17.00;50.70;;;;;;5071941;28;20186;-66
2023/04/10 11:11:06;;;;;;;7.88;6.70;;;17.00;51.00;;;;;;5072258;28;20174;-69
2023/04/10 11:13:39;;;;;;;8.02;6.18;;;17.10;51.20;;;;;;5073411;28;20637;-67
2023/04/10 11:16:06;;;;;;;8.63;5.55;;;17.20;51.40;;;;;;5071712;28;20183;-67
2023/04/10 11:18:44;;;;;;;9.68;6.28;;;17.20;51.40;;;;;;5072046;28;20182;-67
2023/04/10 11:21:13;;;;;;;6.63;5.93;;;17.20;51.30;;;;;;5070231;28;20226;-69
2023/04/10 11:23:57;;;;;;;6.97;6.03;;;17.20;51.10;;;;;;5071432;28;20683;-68
2023/04/10 11:26:40;;;;;;;8.13;5.45;;;17.30;51.90;;;;;;5070649;28;20247;-68
2023/04/10 11:29:26;;;;;;;7.22;5.68;;;17.30;51.60;;;;;;5072573;28;20185;-74
2023/04/10 11:32:02;;;;;;;5.90;5.30;;;17.30;51.30;;;;;;5067230;28;20178;-72
2023/04/10 11:34:29;;;;;;;7.07;5.88;;;17.30;50.80;;;;;;5072781;28;20705;-69
2023/04/10 11:36:55;;;;;;;5.65;5.10;;;17.20;51.20;;;;;;5072830;28;20605;-71
2023/04/10 11:39:21;;;;;;;8.95;4.97;;;17.30;51.40;;;;;;5071809;28;20621;-71
2023/04/10 11:41:47;;;;;;;6.18;5.60;;;17.30;51.20;;;;;;5072810;28;20240;-71
2023/04/10 11:44:15;;;;;;;7.43;5.68;;;17.30;50.10;;;;;;5072837;28;20179;-72
2023/04/10 11:46:43;;;;;;;5.68;4.88;;;17.30;49.80;;;;;;5072332;28;20273;-71
2023/04/10 11:49:09;;;;;;;5.70;5.10;;;17.30;49.60;;;;;;5072400;28;20167;-72
2023/04/10 11:51:35;;;;;;;5.80;5.07;;;17.40;49.40;;;;;;5072643;28;20265;-70
2023/04/10 11:54:11;;;;;;;6.93;4.90;;;17.50;49.30;;;;;;5071239;28;20636;-69
2023/04/10 11:56:37;;;;;;;5.82;5.13;;;17.60;49.80;;;;;;5072626;28;20316;-72
2023/04/10 11:59:08;;;;;;;5.20;4.70;;;17.60;49.70;;;;;;5072368;28;20677;-73
2023/04/10 12:01:34;;;;;;;6.25;5.60;;;17.60;50.10;;;;;;5071850;28;20226;-71
2023/04/10 12:04:00;;;;;;;5.32;4.82;;;17.60;50.20;;;;;;5072094;28;20206;-74
2023/04/10 12:06:26;;;;;;;6.05;4.85;;;17.60;50.10;;;;;;5071091;28;20208;-68
2023/04/10 12:08:52;;;;;;;5.68;4.60;;;17.70;50.80;;;;;;5071640;28;20174;-72
2023/04/10 12:11:19;;;;;;;4.60;4.20;;;17.70;50.70;;;;;;5071558;28;20578;-72
2023/04/10 12:13:45;;;;;;;7.25;4.95;;;17.70;50.80;;;;;;5071526;28;20273;-71
2023/04/10 12:16:10;;;;;;;8.77;5.03;;;17.70;51.10;;;;;;5071952;28;20652;-72
2023/04/10 12:18:36;;;;;;;5.30;4.60;;;17.70;51.30;;;;;;5054421;28;20216;-71
2023/04/10 12:21:01;;;;;;;4.82;4.43;;;17.70;51.50;;;;;;5071366;28;20642;-71
2023/04/10 12:23:28;;;;;;;5.05;4.55;;;17.70;51.60;;;;;;5071663;28;20182;-70
2023/04/10 12:26:10;;;;;;;5.28;4.18;;;17.70;51.90;;;;;;5072094;28;20681;-72
2023/04/10 12:28:37;;;;;;;4.82;4.38;;;17.70;52.00;;;;;;5071698;28;20267;-71
2023/04/10 12:31:03;;;;;;;4.68;4.28;;;17.70;52.10;;;;;;5072375;28;20175;-70
2023/04/10 12:33:28;;;;;;;4.60;4.18;;;17.70;52.20;;;;;;5071956;28;20282;-69
2023/04/10 12:35:54;;;;;;;4.88;4.45;;;17.70;52.40;;;;;;5071377;28;20194;-69
2023/04/10 12:38:42;;;;;;;4.70;4.30;;;17.70;52.40;;;;;;5070182;28;20257;-68
2023/04/10 12:41:08;;;;;;;4.38;3.97;;;17.70;52.50;;;;;;5071774;28;20174;-69
2023/04/10 12:43:41;;;;;;;4.43;4.03;;;17.70;52.60;;;;;;5071032;28;20680;-71